Time;durP1;ratioP1;P1;durP2;ratioP2;P2;SDS_P1;SDS_P2;PMS_P1;PMS_P2;Temp;Humidity;BMP_temperature;BMP_pressure;BME280_temperature;BME280_humidity;BME280_pressure;Samples;Min_cycle;Max_cycle;Signal;HPM_P1;HPM_P2
2023/03/03 00:00:04;;;;;;;27.95;20.80;;;;;;;3.41;100.00;102306.16;5253351;28;20406;-71
2023/03/03 00:02:35;;;;;;;30.83;20.77;;;;;;;3.40;100.00;102314.78;5252676;28;20051;-72
2023/03/03 00:05:07;;;;;;;29.77;22.17;;;;;;;3.37;100.00;102314.88;5253422;28;20494;-72
2023/03/03 00:07:38;;;;;;;27.73;21.80;;;;;;;3.35;100.00;102306.31;5252959;28;20044;-72
2023/03/03 00:10:11;;;;;;;29.90;21.23;;;;;;;3.42;100.00;102319.03;5253205;28;20341;-72
2023/03/03 00:12:46;;;;;;;37.30;21.83;;;;;;;3.57;100.00;102315.13;5254372;28;20045;-72
2023/03/03 00:15:21;;;;;;;29.83;20.90;;;;;;;3.54;100.00;102322.16;5256203;28;20104;-71
2023/03/03 00:17:53;;;;;;;29.27;21.17;;;;;;;3.45;100.00;102312.06;5257268;28;20059;-72
2023/03/03 00:20:33;;;;;;;31.48;20.90;;;;;;;3.55;100.00;102316.91;5256300;28;20542;-72
2023/03/03 00:23:43;;;;;;;28.77;22.00;;;;;;;3.86;100.00;102314.19;5256552;28;20040;-72
2023/03/03 00:26:30;;;;;;;28.08;20.77;;;;;;;3.79;100.00;102315.28;5235037;28;20033;-72
2023/03/03 00:29:07;;;;;;;29.90;20.35;;;;;;;3.58;100.00;102322.00;5255442;28;20047;-71
2023/03/03 00:31:38;;;;;;;28.85;20.33;;;;;;;3.57;100.00;102320.31;5256956;28;20025;-72
2023/03/03 00:34:16;;;;;;;27.17;18.48;;;;;;;3.54;100.00;102323.00;5257915;28;20044;-72
2023/03/03 00:36:50;;;;;;;27.30;19.85;;;;;;;3.53;100.00;102317.88;5256194;28;20033;-72
2023/03/03 00:39:35;;;;;;;27.60;19.95;;;;;;;3.76;100.00;102323.16;5256988;28;20028;-72
2023/03/03 00:42:17;;;;;;;28.75;19.38;;;;;;;3.72;100.00;102315.53;5255478;28;20471;-72
2023/03/03 00:44:59;;;;;;;27.73;19.52;;;;;;;3.83;100.00;102314.28;5255429;28;20062;-71
2023/03/03 00:47:36;;;;;;;25.50;17.70;;;;;;;3.77;100.00;102324.00;5254265;28;20051;-72
2023/03/03 00:50:10;;;;;;;26.77;19.77;;;;;;;3.64;100.00;102328.75;5256211;28;20040;-72
2023/03/03 00:52:55;;;;;;;26.48;18.35;;;;;;;3.66;100.00;102325.19;5257453;28;20375;-72
2023/03/03 00:55:27;;;;;;;26.13;17.98;;;;;;;3.52;100.00;102324.75;5256259;28;20480;-72
2023/03/03 00:57:59;;;;;;;26.67;19.10;;;;;;;3.55;100.00;102321.25;5256629;28;20041;-72
2023/03/03 01:00:30;;;;;;;26.08;18.58;;;;;;;3.54;100.00;102328.16;5253899;28;20028;-72
2023/03/03 01:03:13;;;;;;;24.73;17.65;;;;;;;3.61;100.00;102324.50;5254451;28;20034;-72
2023/03/03 01:05:45;;;;;;;25.67;17.73;;;;;;;3.41;100.00;102322.53;5253950;28;20167;-72
2023/03/03 01:08:16;;;;;;;26.17;18.10;;;;;;;3.39;100.00;102326.91;5256641;28;20029;-72
2023/03/03 01:11:02;;;;;;;23.73;17.63;;;;;;;3.39;100.00;102326.06;5255771;28;20116;-71
2023/03/03 01:13:36;;;;;;;23.88;17.73;;;;;;;3.37;100.00;102335.59;5256213;28;20033;-71
2023/03/03 01:16:07;;;;;;;25.20;17.90;;;;;;;3.32;100.00;102332.31;5255025;28;20033;-71
2023/03/03 01:18:40;;;;;;;25.73;18.15;;;;;;;3.35;100.00;102338.25;5256301;28;20087;-72
2023/03/03 01:21:12;;;;;;;25.15;17.95;;;;;;;3.37;100.00;102336.47;5254957;28;20059;-71
2023/03/03 01:23:43;;;;;;;26.73;18.25;;;;;;;3.35;100.00;102340.00;5255592;28;20048;-72
2023/03/03 01:26:15;;;;;;;26.67;18.00;;;;;;;3.32;100.00;102338.34;5253923;28;20071;-72
2023/03/03 01:28:46;;;;;;;26.98;18.95;;;;;;;3.36;100.00;102339.09;5255761;28;20379;-72
2023/03/03 01:31:17;;;;;;;26.55;17.83;;;;;;;3.38;100.00;102338.16;5254943;28;20024;-71
2023/03/03 01:33:49;;;;;;;26.00;18.33;;;;;;;3.35;100.00;102333.06;5255918;28;20040;-72
2023/03/03 01:36:25;;;;;;;26.30;17.27;;;;;;;3.47;100.00;102342.22;5255809;28;20366;-72
2023/03/03 01:38:56;;;;;;;24.67;17.23;;;;;;;3.41;100.00;102332.91;5255648;28;20033;-72
2023/03/03 01:41:32;;;;;;;25.98;18.60;;;;;;;3.52;100.00;102334.28;5255296;28;20459;-72
2023/03/03 01:44:03;;;;;;;25.77;17.90;;;;;;;3.38;100.00;102347.69;5255597;28;20032;-72
2023/03/03 01:47:01;;;;;;;26.00;17.40;;;;;;;3.42;100.00;102349.28;5254682;28;20041;-72
2023/03/03 01:49:48;;;;;;;25.38;17.52;;;;;;;3.56;100.00;102347.13;5231829;28;20043;-72
2023/03/03 01:52:31;;;;;;;26.65;18.48;;;;;;;3.56;100.00;102352.31;5254857;28;20033;-72
2023/03/03 01:55:10;;;;;;;28.55;19.50;;;;;;;3.59;100.00;102349.59;5254502;28;20033;-72
2023/03/03 01:57:47;;;;;;;28.42;18.92;;;;;;;3.57;100.00;102333.25;5255110;28;20078;-72
2023/03/03 02:00:18;;;;;;;27.27;18.45;;;;;;;3.55;100.00;102342.81;5255164;28;20071;-72
2023/03/03 02:02:51;;;;;;;25.75;18.55;;;;;;;3.48;100.00;102337.88;5254636;28;20032;-72
2023/03/03 02:05:22;;;;;;;27.05;18.83;;;;;;;3.51;100.00;102336.03;5255499;28;20068;-72
2023/03/03 02:07:53;;;;;;;26.58;19.15;;;;;;;3.46;100.00;102335.34;5255291;28;20025;-72
2023/03/03 02:10:25;;;;;;;26.27;19.08;;;;;;;3.37;100.00;102336.47;5253675;28;20027;-72
2023/03/03 02:12:58;;;;;;;27.92;18.67;;;;;;;3.33;100.00;102331.41;5255001;28;20436;-70
2023/03/03 02:15:34;;;;;;;26.17;17.48;;;;;;;3.36;100.00;102337.34;5256289;28;20079;-71
2023/03/03 02:18:10;;;;;;;26.65;18.58;;;;;;;3.33;100.00;102340.06;5253884;28;20104;-70
2023/03/03 02:20:44;;;;;;;25.73;18.02;;;;;;;3.31;100.00;102346.19;5254787;28;20021;-71
2023/03/03 02:23:27;;;;;;;24.63;17.85;;;;;;;3.38;100.00;102343.34;5255506;28;20037;-74
2023/03/03 02:26:21;;;;;;;24.73;17.98;;;;;;;3.45;100.00;102349.19;5254995;28;20029;-70
2023/03/03 02:28:53;;;;;;;27.60;18.45;;;;;;;3.26;100.00;102350.63;5253594;28;20374;-70
2023/03/03 02:31:28;;;;;;;28.30;18.90;;;;;;;3.27;100.00;102349.75;5253532;28;20029;-70
2023/03/03 02:34:00;;;;;;;26.13;18.05;;;;;;;3.14;100.00;102351.84;5255562;28;20039;-70
2023/03/03 02:36:34;;;;;;;24.95;17.60;;;;;;;3.05;100.00;102365.06;5254387;28;20028;-69
2023/03/03 02:39:25;;;;;;;24.35;16.98;;;;;;;3.19;100.00;102349.13;5255172;28;20025;-69
2023/03/03 02:42:08;;;;;;;25.35;17.13;;;;;;;3.00;100.00;102352.25;5253922;28;20017;-70
2023/03/03 02:44:40;;;;;;;29.25;18.58;;;;;;;2.91;100.00;102358.53;5254570;28;20024;-69
2023/03/03 02:47:11;;;;;;;28.90;18.25;;;;;;;2.87;100.00;102348.31;5254129;28;20036;-69
2023/03/03 02:49:42;;;;;;;25.88;17.73;;;;;;;2.86;100.00;102344.03;5254286;28;20090;-70
2023/03/03 02:52:16;;;;;;;26.98;18.38;;;;;;;2.80;100.00;102350.22;5254926;28;20036;-70
2023/03/03 02:54:48;;;;;;;27.40;18.40;;;;;;;2.83;100.00;102354.47;5254875;28;20457;-71
2023/03/03 02:57:19;;;;;;;28.00;17.98;;;;;;;2.78;100.00;102356.34;5254528;28;20031;-70
2023/03/03 02:59:50;;;;;;;25.48;18.35;;;;;;;2.76;100.00;102350.34;5254317;28;20040;-75
2023/03/03 03:02:21;;;;;;;26.23;17.83;;;;;;;2.73;100.00;102348.72;5254562;28;20040;-69
2023/03/03 03:04:53;;;;;;;25.98;17.88;;;;;;;2.68;100.00;102350.56;5254662;28;20032;-70
2023/03/03 03:07:24;;;;;;;28.88;19.00;;;;;;;2.68;100.00;102355.75;5253425;28;20028;-70
2023/03/03 03:09:55;;;;;;;25.30;16.67;;;;;;;2.73;100.00;102358.19;5253719;28;20033;-70
2023/03/03 03:12:27;;;;;;;25.33;18.42;;;;;;;2.78;100.00;102356.34;5253711;28;20028;-71
2023/03/03 03:14:58;;;;;;;29.40;18.38;;;;;;;2.86;100.00;102359.56;5253233;28;20032;-69
2023/03/03 03:17:30;;;;;;;27.85;18.92;;;;;;;2.75;100.00;102343.50;5254319;28;20074;-72
2023/03/03 03:20:01;;;;;;;28.38;18.60;;;;;;;2.76;100.00;102355.53;5254346;28;20025;-69
2023/03/03 03:22:33;;;;;;;24.35;17.42;;;;;;;2.78;100.00;102364.13;5253659;28;20032;-69
2023/03/03 03:25:04;;;;;;;26.42;17.38;;;;;;;2.77;100.00;102355.50;5254029;28;20021;-70
2023/03/03 03:27:36;;;;;;;25.00;17.13;;;;;;;2.81;100.00;102361.44;5254564;28;20036;-72
2023/03/03 03:30:09;;;;;;;29.33;18.83;;;;;;;2.89;100.00;102364.66;5252629;28;20315;-74
2023/03/03 03:32:40;;;;;;;27.15;18.30;;;;;;;2.80;100.00;102372.66;5253130;28;20036;-70
2023/03/03 03:35:12;;;;;;;24.52;17.55;;;;;;;2.83;100.00;102362.25;5254366;28;20033;-70
2023/03/03 03:37:43;;;;;;;26.15;17.52;;;;;;;2.85;100.00;102363.91;5254340;28;20368;-74
2023/03/03 03:40:15;;;;;;;25.95;17.92;;;;;;;2.85;100.00;102357.88;5253091;28;20017;-71
2023/03/03 03:42:46;;;;;;;25.60;17.52;;;;;;;2.86;100.00;102362.16;5254173;28;20028;-69
2023/03/03 03:45:18;;;;;;;26.10;17.67;;;;;;;2.89;100.00;102364.66;5251846;28;20060;-71
2023/03/03 03:47:49;;;;;;;27.15;18.50;;;;;;;2.92;100.00;102368.03;5256245;28;20035;-74
2023/03/03 03:50:20;;;;;;;28.30;19.15;;;;;;;2.97;100.00;102370.47;5257648;28;20029;-71
2023/03/03 03:52:51;;;;;;;27.38;18.08;;;;;;;3.00;100.00;102375.56;5258061;28;20056;-70
2023/03/03 03:55:23;;;;;;;25.42;18.15;;;;;;;2.93;100.00;102368.88;5257869;28;20025;-72
2023/03/03 03:57:55;;;;;;;23.10;15.82;;;;;;;2.82;100.00;102374.34;5258093;28;20474;-70
2023/03/03 04:00:26;;;;;;;22.58;16.15;;;;;;;2.76;100.00;102371.91;5258216;28;20029;-73
2023/03/03 04:02:57;;;;;;;22.42;15.45;;;;;;;2.77;100.00;102377.97;5257582;28;20032;-70
2023/03/03 04:05:29;;;;;;;24.50;17.15;;;;;;;2.74;100.00;102376.28;5257813;28;20028;-74
2023/03/03 04:08:00;;;;;;;24.25;16.27;;;;;;;2.76;100.00;102379.66;5258105;28;20084;-70
2023/03/03 04:10:31;;;;;;;25.33;16.85;;;;;;;2.76;100.00;102376.22;5257224;28;20064;-71
2023/03/03 04:13:03;;;;;;;22.67;15.98;;;;;;;2.62;100.00;102376.63;5258127;28;20500;-70
2023/03/03 04:15:34;;;;;;;22.65;16.48;;;;;;;2.60;100.00;102384.41;5257013;28;20033;-70
2023/03/03 04:18:05;;;;;;;24.77;15.93;;;;;;;2.57;100.00;102381.91;5257870;28;20505;-72
2023/03/03 04:20:39;;;;;;;22.20;15.93;;;;;;;2.61;100.00;102383.56;5256870;28;20017;-70
2023/03/03 04:23:10;;;;;;;;;;;;;;;3.17;100.00;102380.25;5257559;28;20037;-71
2023/03/03 04:25:41;;;;;;;21.57;15.07;;;;;;;2.60;100.00;102376.66;5256311;28;20438;-73
2023/03/03 04:28:14;;;;;;;23.88;16.45;;;;;;;2.58;100.00;102393.97;5257212;28;20283;-70
2023/03/03 04:30:45;;;;;;;22.00;15.38;;;;;;;2.66;100.00;102389.44;5255435;28;20108;-71
2023/03/03 04:33:17;;;;;;;21.10;15.55;;;;;;;2.71;100.00;102393.63;5256768;28;20112;-70
2023/03/03 04:35:48;;;;;;;21.13;14.98;;;;;;;2.70;100.00;102386.78;5257216;28;20032;-73
2023/03/03 04:38:20;;;;;;;21.65;15.10;;;;;;;2.66;100.00;102386.00;5256490;28;20048;-70
2023/03/03 04:40:51;;;;;;;23.10;15.98;;;;;;;2.71;100.00;102383.28;5256660;28;20051;-70
2023/03/03 04:43:22;;;;;;;24.13;15.52;;;;;;;2.75;100.00;102384.91;5257061;28;20024;-74
2023/03/03 04:45:53;;;;;;;23.70;15.73;;;;;;;2.74;100.00;102384.06;5257318;28;20090;-71
2023/03/03 04:48:25;;;;;;;24.98;17.30;;;;;;;2.76;100.00;102387.44;5257302;28;20048;-72
2023/03/03 04:50:56;;;;;;;23.73;16.58;;;;;;;2.81;100.00;102388.19;5256633;28;20052;-70
2023/03/03 04:53:27;;;;;;;25.98;16.98;;;;;;;2.77;100.00;102373.63;5256252;28;20048;-71
2023/03/03 04:55:58;;;;;;;22.25;15.48;;;;;;;2.82;100.00;102387.28;5257150;28;20024;-70
2023/03/03 04:58:30;;;;;;;24.02;16.10;;;;;;;2.76;100.00;102384.84;5254166;28;20052;-72
2023/03/03 05:01:01;;;;;;;23.15;16.85;;;;;;;2.77;100.00;102385.72;5256215;28;20070;-74
2023/03/03 05:03:33;;;;;;;24.20;16.10;;;;;;;2.78;100.00;102385.66;5257491;28;20075;-72
2023/03/03 05:06:04;;;;;;;22.60;15.90;;;;;;;2.77;100.00;102388.31;5256937;28;20036;-70
2023/03/03 05:08:36;;;;;;;25.00;16.75;;;;;;;2.76;100.00;102392.59;5255743;28;20040;-72
2023/03/03 05:11:07;;;;;;;21.50;15.95;;;;;;;2.82;100.00;102395.03;5256195;28;20032;-72
2023/03/03 05:13:39;;;;;;;25.10;16.40;;;;;;;2.79;100.00;102392.53;5257260;28;20041;-70
2023/03/03 05:16:10;;;;;;;21.17;15.10;;;;;;;2.80;100.00;102390.78;5255636;28;20433;-72
2023/03/03 05:18:42;;;;;;;22.42;14.98;;;;;;;2.83;100.00;102398.47;5256770;28;20029;-70
2023/03/03 05:21:13;;;;;;;25.63;17.33;;;;;;;2.82;100.00;102397.63;5256354;28;20032;-71
2023/03/03 05:23:44;;;;;;;23.15;15.60;;;;;;;2.85;100.00;102397.56;5256697;28;20029;-70
2023/03/03 05:26:16;;;;;;;25.38;16.85;;;;;;;2.91;100.00;102401.69;5255589;28;20142;-70
2023/03/03 05:28:47;;;;;;;26.02;17.70;;;;;;;2.86;100.00;102400.97;5256235;28;20021;-70
2023/03/03 05:31:18;;;;;;;24.92;17.15;;;;;;;2.79;100.00;102395.13;5256243;28;20025;-72
2023/03/03 05:33:49;;;;;;;23.85;16.73;;;;;;;2.90;100.00;102410.38;5256218;28;20028;-75
2023/03/03 05:36:21;;;;;;;26.25;17.40;;;;;;;2.92;100.00;102406.84;5257090;28;20074;-71
2023/03/03 05:38:52;;;;;;;23.58;16.15;;;;;;;2.90;100.00;102398.25;5256217;28;20032;-72
2023/03/03 05:41:24;;;;;;;24.88;16.13;;;;;;;2.91;100.00;102404.28;5255972;28;20017;-70
2023/03/03 05:43:55;;;;;;;25.73;16.15;;;;;;;2.90;100.00;102400.84;5254398;28;20443;-71
2023/03/03 05:46:26;;;;;;;24.33;15.80;;;;;;;2.88;100.00;102396.63;5256053;28;20481;-71
2023/03/03 05:48:58;;;;;;;24.08;16.60;;;;;;;2.88;100.00;102405.25;5255815;28;20028;-71
2023/03/03 05:51:29;;;;;;;25.48;16.80;;;;;;;2.92;100.00;102409.44;5255858;28;20047;-70
2023/03/03 05:54:00;;;;;;;24.23;15.65;;;;;;;3.01;100.00;102413.50;5256170;28;20383;-70
2023/03/03 05:56:32;;;;;;;25.55;16.30;;;;;;;3.02;100.00;102409.16;5256054;28;20024;-71
2023/03/03 05:59:03;;;;;;;25.73;16.65;;;;;;;2.98;100.00;102410.16;5255140;28;20064;-70
2023/03/03 06:01:34;;;;;;;24.70;15.95;;;;;;;2.98;100.00;102405.81;5254572;28;20037;-73
2023/03/03 06:04:05;;;;;;;23.52;15.65;;;;;;;3.00;100.00;102409.22;5255450;28;20032;-71
2023/03/03 06:06:37;;;;;;;26.17;14.95;;;;;;;3.05;100.00;102403.91;5255856;28;20490;-74
2023/03/03 06:09:08;;;;;;;25.75;17.20;;;;;;;3.02;100.00;102409.16;5255042;28;20489;-71
2023/03/03 06:11:39;;;;;;;25.20;16.30;;;;;;;3.02;100.00;102411.75;5255091;28;20111;-71
2023/03/03 06:14:10;;;;;;;23.25;14.98;;;;;;;3.05;100.00;102406.50;5255451;28;20033;-71
2023/03/03 06:16:42;;;;;;;22.60;15.95;;;;;;;3.00;100.00;102401.47;5254411;28;20104;-71
2023/03/03 06:19:14;;;;;;;23.58;16.05;;;;;;;3.01;100.00;102402.28;5253996;28;20039;-72
2023/03/03 06:21:45;;;;;;;24.75;16.13;;;;;;;3.06;100.00;102415.94;5255038;28;20021;-70
2023/03/03 06:24:16;;;;;;;23.58;15.73;;;;;;;3.16;100.00;102420.00;5256387;28;20029;-70
2023/03/03 06:26:47;;;;;;;25.80;17.30;;;;;;;3.22;100.00;102418.94;5253835;28;20079;-70
2023/03/03 06:29:19;;;;;;;24.73;16.15;;;;;;;3.24;100.00;102424.94;5254940;28;20020;-71
2023/03/03 06:31:50;;;;;;;22.98;15.82;;;;;;;3.21;100.00;102431.06;5255035;28;20108;-71
2023/03/03 06:34:21;;;;;;;26.00;17.08;;;;;;;3.21;100.00;102437.97;5255787;28;20036;-71
2023/03/03 06:36:53;;;;;;;22.73;15.80;;;;;;;3.19;100.00;102440.63;5256037;28;20036;-72
2023/03/03 06:39:24;;;;;;;23.58;15.40;;;;;;;3.19;100.00;102435.44;5255083;28;20033;-70
2023/03/03 06:41:55;;;;;;;26.42;16.67;;;;;;;3.20;100.00;102439.72;5256079;28;20025;-71
2023/03/03 06:44:27;;;;;;;25.90;17.13;;;;;;;3.26;100.00;102451.63;5257073;28;20025;-70
2023/03/03 06:46:58;;;;;;;24.40;16.27;;;;;;;3.30;100.00;102453.28;5257621;28;20033;-70
2023/03/03 06:49:29;;;;;;;26.67;16.85;;;;;;;3.34;100.00;102460.06;5255468;28;20059;-73
2023/03/03 06:52:11;;;;;;;26.50;16.90;;;;;;;3.48;100.00;102459.66;5255582;28;20036;-70
2023/03/03 06:54:42;;;;;;;28.25;17.10;;;;;;;3.39;100.00;102464.22;5256453;28;20028;-69
2023/03/03 06:57:25;;;;;;;28.48;17.38;;;;;;;3.58;100.00;102466.25;5256804;28;20063;-70
2023/03/03 07:00:13;;;;;;;26.92;17.75;;;;;;;3.55;100.00;102472.38;5255866;28;20049;-72
2023/03/03 07:02:44;;;;;;;25.40;16.27;;;;;;;3.50;100.00;102461.31;5256836;28;20061;-72
2023/03/03 07:05:17;;;;;;;26.67;17.30;;;;;;;3.50;100.00;102470.81;5256068;28;20311;-70
2023/03/03 07:07:48;;;;;;;25.90;17.27;;;;;;;3.54;100.00;102480.22;5256018;28;20098;-71
2023/03/03 07:10:22;;;;;;;23.83;16.08;;;;;;;3.56;100.00;102481.00;5256688;28;20029;-70
2023/03/03 07:13:01;;;;;;;26.83;17.35;;;;;;;3.61;100.00;102477.41;5257161;28;20035;-70
2023/03/03 07:15:34;;;;;;;24.92;16.38;;;;;;;3.62;100.00;102479.09;5256315;28;20106;-72
2023/03/03 07:18:21;;;;;;;25.13;16.77;;;;;;;3.74;100.00;102467.50;5256961;28;20021;-70
2023/03/03 07:20:53;;;;;;;26.75;17.17;;;;;;;3.65;100.00;102476.41;5256044;28;20013;-74
2023/03/03 07:23:34;;;;;;;28.50;17.50;;;;;;;3.80;100.00;102482.88;5255800;28;20056;-71
2023/03/03 07:26:29;;;;;;;29.63;18.38;;;;;;;3.70;100.00;102486.63;5247036;28;20060;-72
2023/03/03 07:29:23;;;;;;;31.27;19.25;;;;;;;3.78;100.00;102481.22;5256477;28;20524;-71
2023/03/03 07:31:57;;;;;;;30.60;18.52;;;;;;;3.71;100.00;102483.13;5255056;28;20048;-72
2023/03/03 07:34:28;;;;;;;;;;;;;;;4.34;100.00;102484.63;5255122;28;20521;-71
2023/03/03 07:37:04;;;;;;;28.37;18.27;;;;;;;3.80;100.00;102493.25;5256125;28;19996;-71
2023/03/03 07:39:37;;;;;;;27.27;18.02;;;;;;;3.73;100.00;102489.13;5253127;28;20290;-73
2023/03/03 07:42:26;;;;;;;;;;;;;;;4.29;100.00;102499.50;5254136;28;20039;-70
2023/03/03 07:44:59;;;;;;;25.55;17.05;;;;;;;3.82;100.00;102493.19;5255389;28;20049;-71
2023/03/03 07:47:35;;;;;;;30.38;17.65;;;;;;;3.89;100.00;102494.72;5254747;28;20571;-71
2023/03/03 07:50:17;;;;;;;23.25;16.45;;;;;;;3.98;100.00;102499.63;5255302;28;20033;-71
2023/03/03 07:52:55;;;;;;;28.05;16.48;;;;;;;3.97;100.00;102502.25;5254917;28;20031;-71
2023/03/03 07:55:33;;;;;;;26.33;16.30;;;;;;;3.92;100.00;102510.19;5252431;28;20025;-71
2023/03/03 07:58:11;;;;;;;28.17;16.75;;;;;;;4.02;100.00;102510.75;5254366;28;20041;-71
2023/03/03 08:01:20;;;;;;;26.55;18.02;;;;;;;4.16;100.00;102508.56;5254593;28;20758;-71
2023/03/03 08:03:51;;;;;;;28.30;17.25;;;;;;;3.87;100.00;102507.72;5254482;28;20292;-71
2023/03/03 08:06:34;;;;;;;27.23;17.10;;;;;;;3.88;100.00;102511.16;5254822;28;20360;-72
2023/03/03 08:09:08;;;;;;;24.20;16.08;;;;;;;4.02;100.00;102518.53;5255197;28;20504;-71
2023/03/03 08:11:50;;;;;;;27.65;17.08;;;;;;;4.05;100.00;102521.88;5253995;28;20048;-71
2023/03/03 08:14:34;;;;;;;25.73;16.38;;;;;;;4.13;100.00;102527.69;5254282;28;20436;-72
2023/03/03 08:17:37;;;;;;;27.23;17.02;;;;;;;4.30;100.00;102521.13;5253594;28;20036;-72
2023/03/03 08:20:27;;;;;;;25.92;16.63;;;;;;;4.32;100.00;102524.53;5253576;28;20099;-72
2023/03/03 08:22:59;;;;;;;24.58;15.30;;;;;;;4.06;100.00;102528.75;5253564;28;20031;-71
2023/03/03 08:25:30;;;;;;;25.63;14.63;;;;;;;4.06;100.00;102536.53;5254583;28;20033;-72
2023/03/03 08:28:01;;;;;;;22.00;14.30;;;;;;;4.07;100.00;102530.44;5253672;28;20477;-71
2023/03/03 08:30:32;;;;;;;23.13;14.88;;;;;;;4.05;100.00;102536.56;5253236;28;20414;-72
2023/03/03 08:33:04;;;;;;;23.00;14.32;;;;;;;4.15;100.00;102541.44;5253739;28;20037;-72
2023/03/03 08:35:35;;;;;;;22.42;14.25;;;;;;;4.18;100.00;102539.66;5258426;28;20037;-71
2023/03/03 08:38:08;;;;;;;23.00;15.10;;;;;;;4.22;100.00;102534.31;5258649;28;20032;-71
2023/03/03 08:40:39;;;;;;;24.23;15.43;;;;;;;4.26;100.00;102538.53;5256938;28;20064;-72
2023/03/03 08:43:15;;;;;;;22.95;15.15;;;;;;;4.31;100.00;102539.22;5257718;28;20021;-72
2023/03/03 08:45:49;;;;;;;24.85;15.18;;;;;;;4.29;100.00;102530.66;5257101;28;20024;-73
2023/03/03 08:48:21;;;;;;;24.02;15.70;;;;;;;4.36;100.00;102544.28;5256606;28;20027;-72
2023/03/03 08:50:53;;;;;;;26.55;15.80;;;;;;;4.45;100.00;102546.56;5257663;28;20038;-71
2023/03/03 08:53:24;;;;;;;28.67;18.10;;;;;;;4.42;100.00;102557.03;5257748;28;20029;-73
2023/03/03 08:55:56;;;;;;;29.08;18.50;;;;;;;4.41;100.00;102557.09;5257388;28;20050;-71
2023/03/03 08:58:27;;;;;;;29.45;16.77;;;;;;;4.31;100.00;102549.59;5253768;28;20039;-72
2023/03/03 09:00:58;;;;;;;30.33;17.60;;;;;;;4.49;100.00;102573.28;5256901;28;20075;-72
2023/03/03 09:03:30;;;;;;;27.17;16.50;;;;;;;4.52;100.00;102566.25;5257255;28;20064;-72
2023/03/03 09:06:01;;;;;;;25.08;16.50;;;;;;;4.48;100.00;102567.25;5256817;28;20035;-72
2023/03/03 09:08:33;;;;;;;23.63;15.68;;;;;;;4.49;100.00;102558.56;5257817;28;20028;-73
2023/03/03 09:11:18;;;;;;;27.92;15.75;;;;;;;4.71;100.00;102573.44;5257257;28;20505;-72
2023/03/03 09:13:52;;;;;;;24.50;16.00;;;;;;;4.53;100.00;102567.09;5256619;28;20486;-72
2023/03/03 09:16:23;;;;;;;24.55;14.93;;;;;;;4.58;100.00;102567.78;5257259;28;20064;-71
2023/03/03 09:18:56;;;;;;;23.42;14.25;;;;;;;4.52;100.00;102548.09;5256023;28;20148;-72
2023/03/03 09:21:33;;;;;;;23.27;14.70;;;;;;;4.72;100.00;102569.94;5257225;28;20099;-72
2023/03/03 09:24:04;;;;;;;25.20;14.55;;;;;;;4.57;100.00;102574.72;5257134;28;20275;-72
2023/03/03 09:26:45;;;;;;;21.08;13.57;;;;;;;4.85;100.00;102571.25;5255089;28;20029;-71
2023/03/03 09:29:24;;;;;;;23.67;14.32;;;;;;;4.88;100.00;102566.78;5255442;28;20090;-72
2023/03/03 09:31:59;;;;;;;21.88;13.18;;;;;;;4.73;100.00;102576.81;5256049;28;20435;-72
2023/03/03 09:34:39;;;;;;;21.30;13.35;;;;;;;4.83;100.00;102573.03;5256541;28;20032;-71
2023/03/03 09:37:31;;;;;;;20.02;12.48;;;;;;;5.00;100.00;102570.75;5256496;28;20043;-69
2023/03/03 09:40:36;;;;;;;19.08;12.13;;;;;;;5.13;100.00;102581.56;5254965;28;20497;-69
2023/03/03 09:43:36;;;;;;;20.58;12.65;;;;;;;5.34;100.00;102577.34;5256802;28;20028;-70
2023/03/03 09:46:50;;;;;;;20.27;12.68;;;;;;;5.48;100.00;102577.72;5255804;28;20020;-70
2023/03/03 09:49:33;;;;;;;19.20;11.52;;;;;;;5.40;100.00;102577.16;5239486;28;20041;-70
2023/03/03 09:52:32;;;;;;;15.05;10.63;;;;;;;5.56;100.00;102582.63;5253594;28;20028;-70
2023/03/03 09:55:14;;;;;;;15.15;10.52;;;;;;;5.35;100.00;102581.66;5256042;28;20108;-71
2023/03/03 09:57:45;;;;;;;15.63;10.20;;;;;;;5.33;100.00;102589.50;5254433;28;20028;-69
2023/03/03 10:00:33;;;;;;;15.73;10.87;;;;;;;5.51;100.00;102590.63;5252979;28;20028;-70
2023/03/03 10:03:23;;;;;;;17.17;10.38;;;;;;;5.70;100.00;102592.56;5254314;28;20299;-71
2023/03/03 10:05:57;;;;;;;16.20;10.80;;;;;;;5.41;100.00;102589.22;5254585;28;20039;-71
2023/03/03 10:08:55;;;;;;;14.05;9.15;;;;;;;5.42;100.00;102593.56;5254798;28;20064;-69
2023/03/03 10:11:49;;;;;;;13.82;9.55;;;;;;;5.83;100.00;102604.19;5253133;28;20076;-69
2023/03/03 10:14:42;;;;;;;15.25;9.82;;;;;;;5.89;100.00;102588.38;5255494;28;20024;-72
2023/03/03 10:17:41;;;;;;;16.77;9.77;;;;;;;5.80;100.00;102591.31;5255583;28;20040;-71
2023/03/03 10:20:43;;;;;;;16.13;10.02;;;;;;;5.96;100.00;102595.06;5255708;28;20116;-68
2023/03/03 10:23:19;;;;;;;14.05;9.52;;;;;;;5.77;100.00;102594.88;5255828;28;20163;-72
2023/03/03 10:26:23;;;;;;;17.35;10.20;;;;;;;6.02;100.00;102584.44;5255942;28;20025;-72
2023/03/03 10:29:41;;;;;;;14.73;9.47;;;;;;;6.30;100.00;102588.59;5255340;28;20391;-71
2023/03/03 10:32:28;;;;;;;15.27;9.82;;;;;;;6.08;100.00;102605.00;5210332;28;20127;-71
2023/03/03 10:35:04;;;;;;;15.70;8.88;;;;;;;6.13;100.00;102596.19;5254562;28;20070;-68
2023/03/03 10:37:57;;;;;;;13.93;9.27;;;;;;;6.24;100.00;102588.81;5254795;28;20029;-72
2023/03/03 10:40:44;;;;;;;13.10;9.63;;;;;;;6.35;100.00;102586.66;5254077;28;20055;-71
2023/03/03 10:43:21;;;;;;;13.93;9.57;;;;;;;6.13;97.98;102598.78;5256106;28;20103;-69
2023/03/03 10:46:04;;;;;;;14.95;9.70;;;;;;;6.28;98.61;102585.19;5255469;28;20051;-71
2023/03/03 10:48:40;;;;;;;;;;;;;;;6.90;97.31;102597.47;5255136;28;20056;-72
2023/03/03 10:51:30;;;;;;;13.20;9.07;;;;;;;6.60;98.62;102590.91;5255195;28;19921;-72
2023/03/03 10:54:19;;;;;;;16.98;9.40;;;;;;;6.67;99.15;102588.00;5254612;28;20090;-72
2023/03/03 10:57:14;;;;;;;12.63;9.05;;;;;;;6.87;98.13;102584.56;5254362;28;20063;-72
2023/03/03 11:00:14;;;;;;;12.30;9.23;;;;;;;7.02;97.69;102590.91;5254559;28;20607;-72
2023/03/03 11:03:20;;;;;;;15.20;9.55;;;;;;;6.89;94.34;102585.31;5250551;28;21209;-71
2023/03/03 11:05:59;;;;;;;16.48;9.88;;;;;;;6.91;93.53;102583.50;5254012;28;20033;-72
2023/03/03 11:08:42;;;;;;;15.35;10.32;;;;;;;6.97;93.55;102582.41;5255117;28;20063;-73
2023/03/03 11:11:28;;;;;;;14.25;9.98;;;;;;;6.92;92.46;102581.75;5254908;28;20482;-73
2023/03/03 11:14:15;;;;;;;13.80;9.27;;;;;;;6.98;92.17;102582.34;5252733;28;20021;-72
2023/03/03 11:17:10;;;;;;;15.50;10.30;;;;;;;7.13;93.06;102580.03;5253946;28;21601;-70
2023/03/03 11:20:23;;;;;;;13.77;9.68;;;;;;;7.46;91.24;102575.97;5253899;28;20033;-73
2023/03/03 11:22:57;;;;;;;14.20;9.90;;;;;;;7.19;91.85;102577.97;5242555;28;20084;-72
2023/03/03 11:25:54;;;;;;;14.02;10.15;;;;;;;7.57;89.40;102580.69;5254894;28;20107;-72
2023/03/03 11:28:37;;;;;;;14.20;9.68;;;;;;;7.30;86.66;102574.91;5224304;28;20637;-72
2023/03/03 11:31:16;;;;;;;13.27;9.73;;;;;;;7.59;89.46;102573.66;5251246;28;20502;-71
2023/03/03 11:34:25;;;;;;;13.63;9.00;;;;;;;7.83;86.52;102581.28;5253623;28;20064;-73
2023/03/03 11:37:08;;;;;;;14.63;9.98;;;;;;;7.77;86.77;102571.97;5242515;28;20132;-71
2023/03/03 11:39:42;;;;;;;15.23;10.20;;;;;;;7.62;84.69;102563.09;5253574;28;20028;-72
2023/03/03 11:42:28;;;;;;;13.73;9.45;;;;;;;7.80;85.97;102571.81;5254817;28;20029;-72
2023/03/03 11:45:16;;;;;;;14.93;10.40;;;;;;;7.82;85.77;102575.22;5254364;28;20044;-72
2023/03/03 11:48:17;;;;;;;12.88;9.38;;;;;;;8.00;86.79;102568.31;5254265;28;20029;-72
2023/03/03 11:51:03;;;;;;;15.30;10.00;;;;;;;8.05;87.50;102561.09;5225485;28;20116;-70
2023/03/03 11:53:52;;;;;;;15.23;9.80;;;;;;;7.96;85.37;102572.81;5250270;28;20041;-72
2023/03/03 11:56:32;;;;;;;19.10;10.98;;;;;;;7.84;85.28;102568.19;5252903;28;20028;-73